Time;durP1;ratioP1;P1;durP2;ratioP2;P2;SDS_P1;SDS_P2;PMS_P1;PMS_P2;Temp;Humidity;BMP_temperature;BMP_pressure;BME280_temperature;BME280_humidity;BME280_pressure;Samples;Min_cycle;Max_cycle;Signal;HPM_P1;HPM_P2
2021/04/30 00:11:49;;;;;;;11.02;7.70;;;9.90;62.00;;;;;;6280214;22;20134;-93
2021/04/30 00:43:59;;;;;;;11.15;8.07;;;9.70;64.70;;;;;;6277677;22;20027;-94
2021/04/30 01:04:29;;;;;;;15.07;9.40;;;9.50;65.20;;;;;;6301456;22;20018;-93
2021/04/30 01:06:54;;;;;;;11.90;8.10;;;9.40;64.80;;;;;;6253856;22;20141;-94
2021/04/30 01:09:20;;;;;;;11.05;7.85;;;9.40;65.30;;;;;;6248320;22;20048;-93
2021/04/30 01:12:13;;;;;;;11.07;7.70;;;9.30;65.40;;;;;;6249335;23;20367;-93
2021/04/30 01:18:21;;;;;;;11.70;7.43;;;9.30;66.60;;;;;;6249065;23;20054;-92
2021/04/30 01:27:48;;;;;;;8.32;5.93;;;9.20;66.20;;;;;;6247382;23;20054;-94
2021/04/30 01:33:59;;;;;;;8.07;6.20;;;9.10;66.30;;;;;;6248805;23;20019;-92
2021/04/30 01:40:02;;;;;;;9.38;6.60;;;9.10;66.40;;;;;;6248607;23;20430;-93
2021/04/30 01:46:18;;;;;;;10.50;6.88;;;9.00;66.60;;;;;;6248642;23;20162;-93
2021/04/30 01:55:45;;;;;;;10.15;8.27;;;8.90;66.80;;;;;;6247411;23;20420;-92
2021/04/30 02:12:25;;;;;;;13.27;9.15;;;8.70;68.60;;;;;;6248427;23;20027;-93
2021/04/30 02:14:50;;;;;;;14.63;11.35;;;8.70;69.20;;;;;;6247641;23;20024;-92
2021/04/30 02:17:16;;;;;;;12.18;9.50;;;8.70;68.30;;;;;;6247870;23;20039;-93
2021/04/30 02:20:36;;;;;;;14.77;9.13;;;8.70;68.60;;;;;;6247215;23;20004;-93
2021/04/30 02:27:01;;;;;;;17.98;10.52;;;8.60;68.90;;;;;;6248226;23;20015;-93
2021/04/30 02:32:55;;;;;;;11.00;8.70;;;8.60;69.50;;;;;;6248268;22;20038;-92
2021/04/30 02:39:33;;;;;;;11.20;8.23;;;8.60;70.70;;;;;;6248082;22;20011;-93
2021/04/30 02:45:32;;;;;;;15.95;9.73;;;8.60;70.60;;;;;;6248371;23;20042;-93
2021/04/30 02:56:05;;;;;;;13.60;8.52;;;8.70;71.30;;;;;;6247059;23;20446;-93
2021/04/30 04:27:42;;;;;;;12.60;7.90;;;11.50;68.60;;;;;;6268437;22;20094;-92
2021/04/30 04:33:31;;;;;;;8.82;6.75;;;11.90;68.10;;;;;;6278560;22;20091;-92
2021/04/30 04:35:57;;;;;;;10.35;6.60;;;12.10;67.60;;;;;;6251296;22;20095;-92
2021/04/30 04:38:23;;;;;;;10.40;7.43;;;12.20;67.50;;;;;;6251445;22;20003;-92
2021/04/30 04:40:50;;;;;;;8.73;7.10;;;12.40;67.30;;;;;;6278156;22;19999;-92
2021/04/30 04:46:49;;;;;;;7.55;6.07;;;12.90;66.60;;;;;;6280058;22;20338;-93
2021/04/30 04:53:24;;;;;;;10.13;7.18;;;13.40;65.50;;;;;;6282223;22;20498;-93
2021/04/30 04:59:27;;;;;;;10.05;8.77;;;13.70;64.40;;;;;;6280281;22;20514;-93
2021/04/30 05:05:17;;;;;;;12.45;8.40;;;13.90;63.90;;;;;;6279537;22;20010;-93
2021/04/30 05:07:43;;;;;;;8.40;7.53;;;13.90;63.80;;;;;;6252484;22;20015;-92
2021/04/30 05:10:09;;;;;;;10.90;7.30;;;14.00;63.80;;;;;;6252140;22;20000;-92
2021/04/30 05:12:35;;;;;;;11.77;7.65;;;14.10;63.70;;;;;;6252938;22;20004;-93
2021/04/30 05:15:01;;;;;;;12.68;8.73;;;14.20;63.60;;;;;;6252235;22;20018;-93
2021/04/30 05:17:43;;;;;;;14.55;9.20;;;14.30;63.60;;;;;;6253578;22;20015;-91
2021/04/30 05:24:07;;;;;;;24.65;11.23;;;14.50;63.10;;;;;;6279030;22;20034;-92
2021/04/30 05:30:14;;;;;;;14.55;8.32;;;14.70;63.00;;;;;;6267118;22;20058;-93
2021/04/30 05:33:13;;;;;;;12.52;7.97;;;14.80;62.90;;;;;;6252676;22;20011;-91
2021/04/30 05:35:45;;;;;;;9.20;7.28;;;15.00;62.80;;;;;;6251637;22;20010;-93
2021/04/30 05:41:33;;;;;;;10.10;7.95;;;15.20;62.50;;;;;;6278718;22;20118;-94
2021/04/30 05:43:59;;;;;;;11.43;7.60;;;15.30;62.30;;;;;;6252555;22;20075;-92
2021/04/30 05:46:24;;;;;;;11.05;9.00;;;15.40;62.10;;;;;;6280600;22;20003;-92
2021/04/30 05:48:53;;;;;;;10.60;8.05;;;15.50;61.90;;;;;;6280089;22;20000;-92
2021/04/30 05:51:19;;;;;;;10.45;7.57;;;15.60;61.80;;;;;;6251047;22;20008;-92
2021/04/30 05:53:44;;;;;;;9.05;6.78;;;15.70;61.50;;;;;;6251840;22;20015;-92
2021/04/30 05:56:10;;;;;;;6.65;5.95;;;15.80;61.20;;;;;;6254760;22;20015;-92
2021/04/30 05:59:04;;;;;;;9.02;6.20;;;15.80;61.00;;;;;;6252766;22;20019;-92
2021/04/30 06:05:04;;;;;;;7.40;5.97;;;16.00;61.10;;;;;;6282325;22;20046;-91
2021/04/30 06:10:57;;;;;;;10.93;7.55;;;16.20;60.60;;;;;;6278338;22;20030;-91
2021/04/30 06:13:23;;;;;;;11.40;7.20;;;16.20;60.40;;;;;;6250924;22;20008;-91
2021/04/30 06:15:48;;;;;;;8.80;6.50;;;16.20;60.30;;;;;;6251045;22;20125;-91
2021/04/30 06:18:19;;;;;;;9.93;5.97;;;16.30;60.20;;;;;;6252912;22;20000;-91
2021/04/30 06:20:45;;;;;;;8.20;7.38;;;16.30;60.00;;;;;;6252336;22;20011;-91
2021/04/30 06:23:11;;;;;;;8.70;6.65;;;16.20;59.90;;;;;;6251555;22;20007;-92
2021/04/30 06:45:14;;;;;;;12.93;6.40;;;16.70;59.10;;;;;;6270478;22;20450;-92
2021/04/30 06:47:40;;;;;;;8.43;6.65;;;16.80;59.10;;;;;;6252427;22;20012;-92
2021/04/30 06:50:06;;;;;;;9.30;6.30;;;16.70;59.10;;;;;;6251970;22;20082;-92
2021/04/30 06:52:32;;;;;;;7.35;6.13;;;16.80;59.00;;;;;;6278219;22;19992;-91
2021/04/30 06:54:58;;;;;;;9.73;6.00;;;16.90;58.70;;;;;;6251279;22;20010;-91
2021/04/30 06:57:24;;;;;;;7.22;5.25;;;17.00;58.60;;;;;;6278365;22;20026;-92
2021/04/30 06:59:50;;;;;;;6.32;5.60;;;17.00;58.40;;;;;;6250959;22;20086;-92
2021/04/30 07:02:16;;;;;;;6.57;5.93;;;17.10;58.40;;;;;;6250691;22;20481;-92
2021/04/30 07:04:42;;;;;;;9.40;6.82;;;17.20;58.70;;;;;;6251438;22;20181;-92
2021/04/30 07:07:07;;;;;;;11.52;6.70;;;17.30;57.80;;;;;;6251368;22;20065;-92
2021/04/30 07:09:33;;;;;;;6.38;5.25;;;17.40;57.50;;;;;;6278509;22;20022;-92
2021/04/30 07:11:59;;;;;;;7.07;5.57;;;17.60;57.50;;;;;;6252260;22;20026;-93
2021/04/30 07:14:25;;;;;;;7.30;5.35;;;17.70;57.10;;;;;;6279072;22;20008;-92
2021/04/30 07:16:52;;;;;;;10.52;5.63;;;17.80;56.80;;;;;;6250776;22;20073;-91
2021/04/30 07:19:18;;;;;;;7.20;5.95;;;17.90;56.50;;;;;;6252081;22;20004;-90
2021/04/30 07:21:54;;;;;;;6.38;4.57;;;18.00;56.20;;;;;;6251904;22;20069;-91
2021/04/30 07:27:42;;;;;;;6.50;4.72;;;18.10;54.90;;;;;;6278215;22;20511;-91
2021/04/30 07:30:08;;;;;;;7.93;5.43;;;18.20;55.10;;;;;;6278273;22;20000;-92
2021/04/30 07:32:34;;;;;;;10.32;6.88;;;18.30;54.30;;;;;;6255182;22;20011;-91
2021/04/30 07:35:00;;;;;;;8.00;5.10;;;18.40;54.10;;;;;;6251928;22;20019;-91
2021/04/30 07:37:26;;;;;;;8.27;5.53;;;18.50;54.80;;;;;;6253007;22;20018;-92
2021/04/30 07:50:16;;;;;;;5.00;3.97;;;18.70;52.00;;;;;;6226113;23;20481;-93
2021/04/30 07:52:41;;;;;;;6.50;4.05;;;18.80;52.40;;;;;;6193872;23;20009;-93
2021/04/30 07:55:08;;;;;;;4.60;3.72;;;18.80;52.40;;;;;;6192357;23;20090;-94
2021/04/30 07:57:35;;;;;;;3.83;3.38;;;18.80;52.20;;;;;;6219655;23;20075;-94
2021/04/30 08:00:01;;;;;;;7.03;4.13;;;18.90;52.10;;;;;;6193789;23;20084;-93
2021/04/30 08:02:27;;;;;;;7.18;4.93;;;19.10;51.70;;;;;;6194082;23;20032;-93
2021/04/30 08:04:52;;;;;;;7.80;4.22;;;19.20;51.40;;;;;;6193041;23;20028;-93
2021/04/30 08:07:18;;;;;;;5.25;3.58;;;19.30;50.90;;;;;;6218136;23;19997;-94
2021/04/30 08:09:44;;;;;;;5.63;3.35;;;19.40;50.20;;;;;;6192570;23;20001;-93
2021/04/30 08:12:10;;;;;;;3.72;3.38;;;19.40;50.10;;;;;;6191531;23;20012;-93
2021/04/30 08:14:36;;;;;;;4.15;3.00;;;19.40;49.80;;;;;;6196229;23;20072;-93
2021/04/30 08:17:02;;;;;;;7.50;3.55;;;19.40;49.40;;;;;;6191743;23;20399;-93
2021/04/30 08:19:28;;;;;;;7.13;3.80;;;19.50;49.00;;;;;;6197347;23;20004;-93
2021/04/30 08:21:54;;;;;;;3.72;3.22;;;19.50;48.60;;;;;;6230766;23;20015;-94
2021/04/30 08:24:20;;;;;;;4.72;3.60;;;19.50;48.40;;;;;;6207693;23;20032;-91
2021/04/30 08:30:09;;;;;;;7.15;4.60;;;19.70;48.30;;;;;;6227498;23;20430;-93
2021/04/30 08:32:34;;;;;;;10.68;4.45;;;19.70;48.50;;;;;;6193449;23;20008;-91
2021/04/30 08:35:00;;;;;;;8.00;4.22;;;19.80;48.20;;;;;;6194642;23;20013;-93
2021/04/30 08:37:26;;;;;;;6.97;3.40;;;19.90;48.00;;;;;;6196233;23;20121;-92
2021/04/30 08:39:52;;;;;;;5.60;4.22;;;20.00;48.00;;;;;;6173447;23;20063;-93
2021/04/30 08:45:40;;;;;;;6.13;4.00;;;20.10;48.20;;;;;;6225126;22;20092;-93
2021/04/30 08:48:11;;;;;;;4.72;3.40;;;20.20;47.80;;;;;;6254473;22;20015;-93
2021/04/30 08:50:37;;;;;;;4.78;3.53;;;20.20;47.50;;;;;;6254426;22;20330;-93
2021/04/30 08:53:32;;;;;;;5.88;3.70;;;20.30;47.40;;;;;;6252764;22;20004;-93
2021/04/30 08:59:27;;;;;;;5.55;2.95;;;20.40;46.80;;;;;;6281012;22;20014;-93
2021/04/30 09:05:48;;;;;;;6.40;4.20;;;20.40;46.90;;;;;;6278416;22;20453;-92
2021/04/30 09:11:53;;;;;;;8.25;3.50;;;20.50;46.60;;;;;;6218800;23;20016;-92
2021/04/30 09:14:46;;;;;;;4.28;3.50;;;20.70;46.60;;;;;;6280057;22;20007;-93
2021/04/30 09:17:20;;;;;;;4.30;3.70;;;20.70;46.40;;;;;;6281750;22;20431;-94
2021/04/30 09:20:47;;;;;;;;;;;;;;;;;;;;;
2021/04/30 09:33:29;;;;;;;13.02;3.88;;;21.10;46.20;;;;;;6283029;22;20031;-93
2021/04/30 09:39:29;;;;;;;7.47;3.45;;;21.30;45.70;;;;;;6223128;22;20113;-93
2021/04/30 09:42:20;;;;;;;4.93;3.72;;;21.40;45.70;;;;;;6260269;23;20016;-94
2021/04/30 09:44:49;;;;;;;5.30;4.10;;;21.40;45.80;;;;;;6253631;23;20004;-93
2021/04/30 09:47:37;;;;;;;5.22;3.60;;;21.50;45.30;;;;;;6252082;22;20039;-92
2021/04/30 09:53:31;;;;;;;4.45;3.30;;;21.60;44.70;;;;;;6283436;22;20345;-94
2021/04/30 09:56:37;;;;;;;4.80;3.50;;;21.60;44.90;;;;;;6255308;22;20015;-93
2021/04/30 10:06:31;;;;;;;13.35;4.38;;;21.90;44.70;;;;;;6289879;22;20014;-91
2021/04/30 10:09:16;;;;;;;8.00;3.35;;;22.10;44.00;;;;;;6254233;22;20004;-92
2021/04/30 10:11:46;;;;;;;4.95;3.88;;;22.10;44.20;;;;;;6257635;22;20000;-94
2021/04/30 10:14:12;;;;;;;4.60;3.45;;;22.20;44.20;;;;;;6263203;22;20011;-95
2021/04/30 10:16:38;;;;;;;5.00;3.50;;;22.30;44.20;;;;;;6256632;22;20107;-93
2021/04/30 10:19:04;;;;;;;5.30;3.63;;;22.30;44.20;;;;;;6227018;23;20020;-94
2021/04/30 10:21:37;;;;;;;8.10;4.50;;;22.40;44.00;;;;;;6226496;23;19997;-93
2021/04/30 10:24:05;;;;;;;7.78;3.75;;;22.60;43.50;;;;;;6225254;23;20000;-93
2021/04/30 10:26:32;;;;;;;7.90;3.78;;;22.50;43.80;;;;;;6225422;23;20007;-93
2021/04/30 10:29:02;;;;;;;9.95;3.95;;;22.60;42.80;;;;;;6228833;23;20015;-95
2021/04/30 10:31:39;;;;;;;4.65;3.33;;;22.50;42.90;;;;;;6231030;23;20076;-94
2021/04/30 10:34:21;;;;;;;3.83;3.38;;;22.50;42.80;;;;;;6229328;23;20068;-92
2021/04/30 10:36:58;;;;;;;4.18;3.65;;;22.50;42.60;;;;;;6254210;23;20411;-93
2021/04/30 10:39:57;;;;;;;4.97;3.13;;;22.50;43.10;;;;;;6226555;23;20016;-92
2021/04/30 10:42:29;;;;;;;4.80;3.00;;;22.60;42.90;;;;;;6223918;23;20004;-93
2021/04/30 10:45:01;;;;;;;6.43;3.50;;;22.60;43.10;;;;;;6224204;23;20419;-92
2021/04/30 10:47:29;;;;;;;4.30;3.17;;;22.70;43.10;;;;;;6256025;23;19996;-93
2021/04/30 10:50:20;;;;;;;5.95;3.08;;;22.80;43.00;;;;;;6226851;23;20095;-93
2021/04/30 10:52:53;;;;;;;4.32;3.30;;;22.80;42.70;;;;;;6224919;23;20106;-92
2021/04/30 10:55:19;;;;;;;11.35;3.72;;;22.90;42.80;;;;;;6223938;23;20020;-93
2021/04/30 10:57:49;;;;;;;7.40;3.78;;;22.80;42.60;;;;;;6221557;23;20015;-93
2021/04/30 11:00:26;;;;;;;4.30;2.88;;;22.80;42.60;;;;;;6224296;23;20004;-94
2021/04/30 11:03:17;;;;;;;4.80;3.28;;;22.70;42.70;;;;;;6225071;23;20004;-93
2021/04/30 11:06:04;;;;;;;10.25;3.63;;;22.80;42.90;;;;;;6222350;23;20007;-94
2021/04/30 11:09:00;;;;;;;3.78;3.22;;;22.80;42.30;;;;;;6218697;23;20023;-94
2021/04/30 11:11:39;;;;;;;3.25;2.90;;;22.80;42.20;;;;;;6208036;23;20083;-94
2021/04/30 11:14:42;;;;;;;6.18;3.60;;;22.80;42.60;;;;;;6225045;23;20117;-94
2021/04/30 11:17:46;;;;;;;4.93;3.30;;;22.80;42.10;;;;;;6202504;23;20054;-95
2021/04/30 11:20:21;;;;;;;4.18;3.08;;;22.80;42.20;;;;;;6220339;23;20090;-95
2021/04/30 11:23:21;;;;;;;4.90;3.25;;;22.70;42.40;;;;;;6245944;23;20008;-94
2021/04/30 11:25:59;;;;;;;3.20;2.90;;;22.50;42.70;;;;;;6139596;23;20024;-94
2021/04/30 11:28:34;;;;;;;3.42;2.97;;;22.50;43.20;;;;;;6219469;23;20005;-95
2021/04/30 11:31:25;;;;;;;4.55;3.15;;;22.50;43.30;;;;;;6219409;23;20012;-93
2021/04/30 11:34:11;;;;;;;6.65;2.88;;;22.70;43.30;;;;;;6219675;23;20011;-93
2021/04/30 11:36:39;;;;;;;4.82;2.95;;;22.80;42.50;;;;;;6218795;23;20199;-95
2021/04/30 11:39:35;;;;;;;5.57;2.88;;;23.00;42.80;;;;;;6241956;22;20019;-93
2021/04/30 11:42:06;;;;;;;3.45;2.80;;;23.20;42.10;;;;;;6186399;23;20004;-93
2021/04/30 11:44:32;;;;;;;4.28;3.05;;;23.30;42.10;;;;;;6190173;23;20012;-94
2021/04/30 11:47:05;;;;;;;4.70;3.22;;;23.50;42.10;;;;;;6215194;23;20305;-93
2021/04/30 11:49:36;;;;;;;3.75;3.03;;;23.60;41.80;;;;;;6215551;23;20359;-94
2021/04/30 11:52:03;;;;;;;4.57;3.80;;;23.60;41.40;;;;;;6189554;23;20000;-93
2021/04/30 11:54:34;;;;;;;3.85;3.38;;;23.60;41.50;;;;;;6187139;23;20020;-95
2021/04/30 11:57:13;;;;;;;4.20;2.90;;;23.70;41.20;;;;;;6188527;23;20012;-93
2021/04/30 11:59:41;;;;;;;5.78;3.67;;;23.80;40.70;;;;;;6196281;23;20139;-94
2021/04/30 12:02:13;;;;;;;5.65;3.55;;;23.70;40.70;;;;;;6193424;23;20008;-95
2021/04/30 12:04:53;;;;;;;7.63;3.30;;;23.80;41.10;;;;;;6218408;23;20067;-93
2021/04/30 12:07:23;;;;;;;4.75;2.92;;;23.80;41.10;;;;;;6194050;23;20079;-95
2021/04/30 12:09:49;;;;;;;3.90;3.00;;;24.00;41.30;;;;;;6194626;23;20012;-95
2021/04/30 12:12:27;;;;;;;3.88;2.60;;;24.20;41.30;;;;;;6191891;23;20012;-94
2021/04/30 12:14:59;;;;;;;3.28;2.72;;;24.40;41.00;;;;;;6223790;23;20009;-93
2021/04/30 12:17:36;;;;;;;3.33;2.80;;;24.60;40.80;;;;;;6219403;23;20301;-94
2021/04/30 12:20:08;;;;;;;8.25;3.95;;;24.80;40.50;;;;;;6192803;23;20237;-94
2021/04/30 12:22:43;;;;;;;4.93;3.50;;;24.90;39.90;;;;;;6219198;23;20109;-92
2021/04/30 12:25:38;;;;;;;4.38;2.90;;;24.90;39.90;;;;;;6193075;23;20008;-94
2021/04/30 12:28:12;;;;;;;3.58;3.00;;;24.90;39.10;;;;;;6198715;23;20000;-94
2021/04/30 12:30:39;;;;;;;8.93;3.40;;;24.90;40.00;;;;;;6195203;23;20001;-94
2021/04/30 12:33:05;;;;;;;4.10;3.00;;;24.90;40.20;;;;;;6193248;23;20009;-94
2021/04/30 12:35:32;;;;;;;3.65;3.30;;;25.00;40.50;;;;;;6218452;23;20443;-94
2021/04/30 12:37:58;;;;;;;5.53;3.30;;;25.10;40.40;;;;;;6216776;23;20436;-94
2021/04/30 12:40:28;;;;;;;6.30;2.90;;;25.30;40.30;;;;;;6236574;22;20027;-94
2021/04/30 12:42:56;;;;;;;5.90;3.22;;;25.40;40.20;;;;;;6223236;23;20004;-94
2021/04/30 12:45:22;;;;;;;4.10;3.00;;;25.50;39.90;;;;;;6250259;23;20004;-94
2021/04/30 12:48:11;;;;;;;3.42;3.13;;;25.60;40.00;;;;;;6259811;22;20016;-94
2021/04/30 12:50:37;;;;;;;5.38;3.63;;;25.70;39.90;;;;;;6222243;23;20036;-95
2021/04/30 12:53:02;;;;;;;4.80;3.40;;;25.90;40.00;;;;;;6223533;23;20050;-95
2021/04/30 12:55:39;;;;;;;4.35;3.20;;;26.10;39.80;;;;;;6250213;23;20054;-94
2021/04/30 12:58:16;;;;;;;4.18;3.50;;;26.40;40.30;;;;;;6229038;23;20008;-92
2021/04/30 13:01:10;;;;;;;5.70;3.38;;;26.60;39.00;;;;;;6228204;23;20011;-94
2021/04/30 13:03:41;;;;;;;5.10;3.85;;;26.90;38.30;;;;;;6225776;23;20000;-94
2021/04/30 13:06:14;;;;;;;4.22;3.40;;;27.10;38.90;;;;;;6219594;23;20008;-94
2021/04/30 13:08:41;;;;;;;5.55;3.75;;;27.40;38.80;;;;;;6225495;23;20004;-95
2021/04/30 13:11:20;;;;;;;3.60;3.30;;;27.60;38.10;;;;;;6249771;23;20008;-94
2021/04/30 13:14:03;;;;;;;4.00;3.00;;;27.60;38.10;;;;;;6218173;23;20000;-93
2021/04/30 13:16:39;;;;;;;;;;;27.90;38.20;;;;;;6225828;23;20016;-94
2021/04/30 13:19:09;;;;;;;7.90;3.25;;;28.10;38.00;;;;;;6229771;23;19899;-95
2021/04/30 13:21:36;;;;;;;4.10;3.70;;;28.50;37.90;;;;;;6225780;23;20032;-94
2021/04/30 13:24:29;;;;;;;4.47;4.03;;;28.60;37.10;;;;;;6228480;23;20008;-94
2021/04/30 13:27:05;;;;;;;7.25;3.90;;;28.60;36.50;;;;;;6219584;23;20089;-92
2021/04/30 13:29:42;;;;;;;4.93;3.80;;;28.70;36.80;;;;;;6224799;23;20000;-92
2021/04/30 13:32:14;;;;;;;5.28;3.63;;;28.80;36.90;;;;;;6228080;23;20008;-94
2021/04/30 13:34:46;;;;;;;5.53;4.50;;;28.90;36.90;;;;;;6223479;23;20008;-94
2021/04/30 13:37:17;;;;;;;5.68;4.20;;;29.00;36.60;;;;;;6224775;23;20008;-93
2021/04/30 13:39:47;;;;;;;5.05;3.80;;;29.00;36.40;;;;;;6230682;23;20048;-93
2021/04/30 13:42:35;;;;;;;4.47;3.80;;;28.90;36.50;;;;;;6256861;23;20004;-95
2021/04/30 13:45:08;;;;;;;3.97;3.65;;;29.00;36.50;;;;;;6232579;23;20008;-92
2021/04/30 13:47:43;;;;;;;4.25;3.33;;;29.10;36.70;;;;;;6253988;23;19993;-93
2021/04/30 13:50:28;;;;;;;3.92;3.17;;;29.40;36.80;;;;;;6255539;23;20007;-92
2021/04/30 13:52:58;;;;;;;4.05;3.60;;;29.70;36.20;;;;;;6228647;23;20000;-94
2021/04/30 13:55:25;;;;;;;3.67;3.00;;;30.10;36.50;;;;;;6226794;23;20000;-93
2021/04/30 13:57:51;;;;;;;5.35;3.70;;;30.50;36.20;;;;;;6204596;23;20063;-93
2021/04/30 14:00:21;;;;;;;4.75;3.30;;;30.80;35.60;;;;;;6250978;23;20007;-93
2021/04/30 14:02:48;;;;;;;3.90;2.83;;;30.90;35.10;;;;;;6223705;23;20000;-93
2021/04/30 14:05:15;;;;;;;5.70;3.60;;;30.90;35.00;;;;;;6223599;23;20023;-93
2021/04/30 14:07:43;;;;;;;4.50;3.08;;;31.00;34.90;;;;;;6227703;23;20024;-94
2021/04/30 14:10:11;;;;;;;5.57;2.97;;;31.20;34.90;;;;;;6229894;23;20011;-91
2021/04/30 14:12:39;;;;;;;5.43;2.72;;;31.40;34.60;;;;;;6229669;23;20483;-92
2021/04/30 14:15:07;;;;;;;2.90;2.70;;;31.50;34.40;;;;;;6252377;22;20408;-91
2021/04/30 14:17:33;;;;;;;5.18;3.30;;;31.60;34.20;;;;;;6226313;23;20000;-92
2021/04/30 14:20:00;;;;;;;3.13;2.60;;;31.50;33.30;;;;;;6224637;23;20000;-92
2021/04/30 14:22:36;;;;;;;3.83;2.97;;;31.30;33.50;;;;;;6227801;23;20054;-94
2021/04/30 14:25:04;;;;;;;4.93;2.97;;;31.10;32.50;;;;;;6225595;23;20038;-93
2021/04/30 14:27:30;;;;;;;7.72;2.72;;;30.90;33.70;;;;;;6237721;23;20072;-93
2021/04/30 14:29:58;;;;;;;4.93;3.00;;;30.80;33.60;;;;;;6245276;23;20012;-93
2021/04/30 14:32:26;;;;;;;4.05;2.90;;;30.50;33.80;;;;;;6271257;22;19988;-93
2021/04/30 14:34:52;;;;;;;3.88;2.50;;;30.30;33.90;;;;;;6232932;23;20004;-93
2021/04/30 14:37:19;;;;;;;4.18;2.90;;;30.30;34.40;;;;;;6255027;23;20058;-93
2021/04/30 14:39:47;;;;;;;4.25;3.05;;;30.70;34.60;;;;;;6225408;23;20020;-93
2021/04/30 14:42:17;;;;;;;6.68;3.17;;;31.10;33.90;;;;;;6253011;23;20008;-93
2021/04/30 14:44:42;;;;;;;4.38;3.00;;;31.40;33.80;;;;;;6226656;23;20008;-93
2021/04/30 14:47:12;;;;;;;3.42;2.80;;;31.70;33.60;;;;;;6252898;23;20000;-91
2021/04/30 14:49:38;;;;;;;3.80;3.10;;;32.00;33.40;;;;;;6234370;23;20152;-93
2021/04/30 14:52:05;;;;;;;2.90;2.60;;;32.20;33.20;;;;;;6264087;23;20008;-94
2021/04/30 14:54:33;;;;;;;5.22;2.72;;;32.20;32.80;;;;;;6213259;23;20070;-92
2021/04/30 14:57:00;;;;;;;2.75;2.55;;;32.10;32.70;;;;;;6251967;23;20004;-93
2021/04/30 14:59:28;;;;;;;2.80;2.55;;;31.90;32.40;;;;;;6222618;23;20008;-93
2021/04/30 15:01:58;;;;;;;3.10;2.80;;;31.70;32.50;;;;;;6251693;23;20007;-93
2021/04/30 15:04:26;;;;;;;3.05;2.75;;;31.40;32.20;;;;;;6226977;23;20008;-92
2021/04/30 15:06:57;;;;;;;4.13;2.85;;;30.70;32.30;;;;;;6256294;23;20007;-93
2021/04/30 15:09:32;;;;;;;3.50;2.55;;;30.00;33.10;;;;;;6258926;22;20004;-94
2021/04/30 15:11:58;;;;;;;3.15;2.85;;;29.40;33.50;;;;;;6227502;23;20000;-95
2021/04/30 15:14:26;;;;;;;3.85;2.65;;;29.20;34.40;;;;;;6255636;23;20004;-93
2021/04/30 15:19:28;;;;;;;4.32;2.90;;;28.90;34.40;;;;;;6279619;22;20020;-94
2021/04/30 15:21:54;;;;;;;3.85;3.00;;;28.50;34.70;;;;;;6258255;22;20007;-93
2021/04/30 15:24:23;;;;;;;6.35;3.10;;;28.30;35.10;;;;;;6299393;22;19984;-94
2021/04/30 15:26:48;;;;;;;3.25;2.53;;;28.10;35.30;;;;;;6204193;22;20031;-92
2021/04/30 15:29:14;;;;;;;3.67;3.30;;;27.70;35.50;;;;;;6258215;22;20361;-91
2021/04/30 15:31:41;;;;;;;3.58;2.97;;;27.40;35.80;;;;;;6285348;22;19996;-89
2021/04/30 15:34:09;;;;;;;5.35;3.40;;;26.90;36.20;;;;;;6287966;22;20000;-90
2021/04/30 15:36:42;;;;;;;5.32;3.00;;;26.60;36.90;;;;;;6238216;22;20072;-93
2021/04/30 15:39:08;;;;;;;;;;;26.40;37.40;;;;;;6296172;22;19999;-94
2021/04/30 15:41:34;;;;;;;5.38;2.78;;;26.10;37.60;;;;;;6270022;22;20358;-93
2021/04/30 15:44:04;;;;;;;3.17;2.80;;;26.10;37.90;;;;;;6271775;22;20056;-94
2021/04/30 15:47:05;;;;;;;;;;;;;;;;;;;;;
2021/04/30 15:49:40;;;;;;;2.95;2.53;;;26.30;38.30;;;;;;6285326;22;20003;-95
2021/04/30 15:52:09;;;;;;;3.17;2.78;;;26.40;38.10;;;;;;6254804;22;20015;-95
2021/04/30 15:54:41;;;;;;;3.08;2.80;;;26.40;37.90;;;;;;6254841;22;20007;-94
2021/04/30 15:57:11;;;;;;;3.25;2.80;;;26.20;37.90;;;;;;6255841;22;20003;-92
2021/04/30 15:59:37;;;;;;;3.38;2.60;;;25.90;38.10;;;;;;6255545;22;20003;-94
2021/04/30 16:02:05;;;;;;;2.97;2.78;;;25.60;38.30;;;;;;6253013;22;20315;-93
2021/04/30 16:04:34;;;;;;;5.07;2.78;;;25.30;38.70;;;;;;6261295;22;20004;-93
2021/04/30 16:07:06;;;;;;;6.40;3.63;;;24.90;39.20;;;;;;6263464;22;20011;-95
2021/04/30 16:09:37;;;;;;;6.20;3.88;;;24.60;39.80;;;;;;6271690;22;20008;-95
2021/04/30 16:12:12;;;;;;;5.60;3.20;;;24.20;40.40;;;;;;6271085;22;20014;-94
2021/04/30 16:14:42;;;;;;;5.22;3.15;;;23.90;40.90;;;;;;6299859;22;20057;-94
2021/04/30 16:17:15;;;;;;;5.25;3.55;;;23.50;41.30;;;;;;6269184;22;20002;-95
2021/04/30 16:19:43;;;;;;;5.68;3.70;;;23.20;41.90;;;;;;6228352;23;20008;-95
2021/04/30 16:22:14;;;;;;;6.22;3.42;;;23.00;42.30;;;;;;6223693;23;20023;-94
2021/04/30 16:24:43;;;;;;;4.38;3.70;;;22.70;42.80;;;;;;6223683;23;19996;-94
2021/04/30 16:27:14;;;;;;;6.32;3.45;;;22.50;43.20;;;;;;6226797;23;20020;-95
2021/04/30 16:29:49;;;;;;;8.57;3.35;;;22.20;43.70;;;;;;6223998;23;20012;-94
2021/04/30 16:32:21;;;;;;;5.43;3.30;;;22.00;44.00;;;;;;6221580;23;20005;-95
2021/04/30 16:34:51;;;;;;;5.50;3.50;;;21.90;44.30;;;;;;6228582;23;20012;-95
2021/04/30 16:37:22;;;;;;;6.10;3.40;;;21.70;44.70;;;;;;6265194;22;20012;-95
2021/04/30 16:39:53;;;;;;;7.32;3.30;;;21.60;45.00;;;;;;6239077;23;20000;-95
2021/04/30 16:42:22;;;;;;;6.60;3.70;;;21.40;45.30;;;;;;6237360;23;20316;-94
2021/04/30 16:44:55;;;;;;;5.75;3.97;;;21.30;45.60;;;;;;6240000;23;20000;-96
2021/04/30 16:47:56;;;;;;;7.70;5.50;;;21.20;46.00;;;;;;6235102;23;20054;-96
2021/04/30 16:50:35;;;;;;;8.52;4.32;;;21.00;46.80;;;;;;6262136;22;20042;-96
2021/04/30 16:58:52;;;;;;;4.20;3.78;;;20.70;47.80;;;;;;6169089;22;20007;31
2021/04/30 17:01:27;;;;;;;7.82;4.53;;;20.60;48.00;;;;;;6259574;22;20039;31
2021/04/30 17:04:00;;;;;;;6.20;4.18;;;20.50;48.30;;;;;;6197918;23;20049;-96
2021/04/30 17:06:31;;;;;;;7.47;4.63;;;20.40;48.50;;;;;;6175248;23;20013;-95
2021/04/30 17:09:03;;;;;;;6.03;4.03;;;20.30;48.90;;;;;;6197521;23;20001;-95
2021/04/30 17:11:29;;;;;;;6.97;4.43;;;20.30;49.20;;;;;;6175559;23;20020;-95
2021/04/30 17:13:55;;;;;;;8.73;4.63;;;20.20;49.50;;;;;;6190012;23;20001;-95
2021/04/30 17:16:23;;;;;;;7.75;4.90;;;20.20;49.80;;;;;;6205826;23;20028;-96
2021/04/30 17:18:57;;;;;;;9.40;5.50;;;20.20;50.10;;;;;;6200734;23;20004;-95
2021/04/30 17:21:29;;;;;;;7.43;5.15;;;20.10;50.30;;;;;;6210138;23;20018;-95
2021/04/30 17:23:57;;;;;;;6.43;4.75;;;20.10;50.40;;;;;;6230430;23;20001;-95
2021/04/30 17:32:19;;;;;;;5.78;4.05;;;19.90;51.20;;;;;;6300118;22;20078;-94
2021/04/30 17:34:52;;;;;;;4.68;3.90;;;19.80;51.00;;;;;;6272234;22;20033;-92
2021/04/30 17:37:18;;;;;;;6.20;4.07;;;19.80;51.40;;;;;;6245947;22;20015;-94
2021/04/30 17:39:44;;;;;;;5.43;4.22;;;19.80;51.70;;;;;;6268538;22;20031;-95
2021/04/30 17:42:23;;;;;;;7.72;4.68;;;19.80;51.70;;;;;;6267417;22;20011;-94
2021/04/30 17:53:35;;;;;;;4.97;4.47;;;19.70;52.90;;;;;;6270655;22;19915;-91
2021/04/30 17:56:02;;;;;;;9.65;5.75;;;19.60;53.50;;;;;;6250203;22;20050;-92
2021/04/30 17:58:28;;;;;;;7.55;5.18;;;19.60;55.40;;;;;;6250444;22;20007;-91
2021/04/30 18:00:56;;;;;;;7.65;4.55;;;19.50;56.00;;;;;;6251107;22;20004;-91
2021/04/30 18:03:23;;;;;;;6.63;4.55;;;19.40;56.50;;;;;;6277835;22;20003;-91
2021/04/30 18:05:49;;;;;;;5.90;3.80;;;19.20;59.40;;;;;;6250986;22;20018;-91
2021/04/30 18:08:16;;;;;;;6.97;4.93;;;19.00;59.90;;;;;;6278532;22;20026;-91
2021/04/30 18:10:47;;;;;;;5.57;4.45;;;18.80;62.90;;;;;;6250959;22;20075;-90
2021/04/30 18:13:13;;;;;;;6.13;4.20;;;18.50;64.30;;;;;;6224471;22;20003;-90
2021/04/30 18:15:39;;;;;;;4.75;4.03;;;18.30;65.30;;;;;;6271291;22;20019;-90
2021/04/30 18:18:06;;;;;;;5.13;3.90;;;18.00;66.60;;;;;;6224634;23;20442;-90
2021/04/30 18:20:34;;;;;;;5.25;4.05;;;17.80;67.90;;;;;;6221731;23;20001;-90
2021/04/30 18:23:00;;;;;;;5.95;4.50;;;17.60;69.10;;;;;;6221588;23;20012;-90
2021/04/30 18:25:26;;;;;;;7.15;4.78;;;17.50;69.60;;;;;;6222325;23;20000;-91
2021/04/30 18:27:56;;;;;;;8.27;4.47;;;17.40;71.10;;;;;;6221151;23;20047;-91
2021/04/30 18:30:22;;;;;;;7.50;4.63;;;17.20;72.20;;;;;;6222017;23;20675;-90
2021/04/30 18:32:48;;;;;;;5.03;4.10;;;17.10;72.40;;;;;;6221299;23;20000;-92
2021/04/30 18:35:14;;;;;;;5.88;4.22;;;17.10;72.80;;;;;;6221571;23;20090;-91
2021/04/30 18:37:40;;;;;;;4.88;4.38;;;17.00;73.20;;;;;;6221160;23;20008;-90
2021/04/30 18:40:07;;;;;;;5.32;4.13;;;17.00;73.10;;;;;;6220782;23;20059;-93
2021/04/30 18:42:32;;;;;;;7.32;4.00;;;17.00;73.20;;;;;;6220378;23;20008;-91
2021/04/30 18:44:58;;;;;;;4.63;3.35;;;17.00;73.20;;;;;;6247204;23;20057;-92
2021/04/30 18:47:24;;;;;;;3.70;2.90;;;17.00;73.00;;;;;;6221990;23;20024;-91
2021/04/30 18:49:51;;;;;;;4.65;3.17;;;16.90;72.70;;;;;;6221263;23;20034;-90
2021/04/30 18:52:17;;;;;;;3.35;2.63;;;17.00;72.60;;;;;;6220977;23;20020;-91
2021/04/30 18:54:43;;;;;;;3.60;2.45;;;16.90;72.70;;;;;;6249230;23;20007;-88
2021/04/30 18:57:09;;;;;;;3.53;2.60;;;16.90;72.70;;;;;;6227009;23;20012;-89